sensor_id;sensor_type;location;lat;lon;timestamp;pressure;altitude;pressure_sealevel;temperature;humidity
46007;BME280;31738;50.188;8.524;2024-01-15T00:00:40;97612.75;;;0.03;82.17
46007;BME280;31738;50.188;8.524;2024-01-15T00:03:09;97603.78;;;0.04;82.21
46007;BME280;31738;50.188;8.524;2024-01-15T00:05:41;97603.78;;;0.04;82.14
46007;BME280;31738;50.188;8.524;2024-01-15T00:08:14;97603.78;;;0.04;82.05
46007;BME280;31738;50.188;8.524;2024-01-15T00:11:06;97604.25;;;0.01;81.93
46007;BME280;31738;50.188;8.524;2024-01-15T00:13:31;97595.19;;;-0.03;82.37
46007;BME280;31738;50.188;8.524;2024-01-15T00:15:57;97594.97;;;-0.02;82.11
46007;BME280;31738;50.188;8.524;2024-01-15T00:18:28;97599.00;;;0.01;82.23
46007;BME280;31738;50.188;8.524;2024-01-15T00:20:53;97597.84;;;-0.03;82.15
46007;BME280;31738;50.188;8.524;2024-01-15T00:23:28;97595.19;;;-0.03;82.08
46007;BME280;31738;50.188;8.524;2024-01-15T00:26:07;97587.53;;;-0.05;82.04
46007;BME280;31738;50.188;8.524;2024-01-15T00:28:37;97596.81;;;-0.02;82.45
46007;BME280;31738;50.188;8.524;2024-01-15T00:31:09;97592.91;;;0.00;82.24
46007;BME280;31738;50.188;8.524;2024-01-15T00:33:42;97588.22;;;0.03;82.39
46007;BME280;31738;50.188;8.524;2024-01-15T00:36:12;97594.28;;;0.03;82.24
46007;BME280;31738;50.188;8.524;2024-01-15T00:38:44;97593.25;;;0.04;82.16
46007;BME280;31738;50.188;8.524;2024-01-15T00:41:10;97597.25;;;0.07;82.00
46007;BME280;31738;50.188;8.524;2024-01-15T00:43:44;97598.06;;;0.07;82.10
46007;BME280;31738;50.188;8.524;2024-01-15T00:46:16;97591.72;;;0.08;82.10
46007;BME280;31738;50.188;8.524;2024-01-15T00:48:45;97592.31;;;0.10;82.34
46007;BME280;31738;50.188;8.524;2024-01-15T00:51:13;97592.31;;;0.10;82.45
46007;BME280;31738;50.188;8.524;2024-01-15T00:53:41;97590.72;;;0.09;82.56
46007;BME280;31738;50.188;8.524;2024-01-15T00:56:10;97594.38;;;0.08;82.25
46007;BME280;31738;50.188;8.524;2024-01-15T00:58:36;97583.75;;;0.03;82.47
46007;BME280;31738;50.188;8.524;2024-01-15T01:01:01;97589.81;;;0.03;82.46
46007;BME280;31738;50.188;8.524;2024-01-15T01:03:29;97584.31;;;0.05;82.40
46007;BME280;31738;50.188;8.524;2024-01-15T01:50:20;97577.34;;;-0.01;82.24
46007;BME280;31738;50.188;8.524;2024-01-15T01:57:46;97569.31;;;-0.06;82.19
46007;BME280;31738;50.188;8.524;2024-01-15T02:05:37;97568.78;;;-0.08;82.25
46007;BME280;31738;50.188;8.524;2024-01-15T02:13:54;97561.56;;;-0.13;82.02
46007;BME280;31738;50.188;8.524;2024-01-15T02:50:42;97549.41;;;-0.14;82.53
46007;BME280;31738;50.188;8.524;2024-01-15T03:49:54;97517.69;;;-0.07;83.08
46007;BME280;31738;50.188;8.524;2024-01-15T04:01:49;97528.69;;;-0.10;82.83
46007;BME280;31738;50.188;8.524;2024-01-15T04:08:15;97507.13;;;-0.07;83.17
46007;BME280;31738;50.188;8.524;2024-01-15T04:15:26;97496.59;;;-0.07;83.51
46007;BME280;31738;50.188;8.524;2024-01-15T04:23:26;97488.94;;;-0.09;82.91
46007;BME280;31738;50.188;8.524;2024-01-15T04:26:52;97490.22;;;-0.11;82.76
46007;BME280;31738;50.188;8.524;2024-01-15T04:29:26;97489.75;;;-0.08;83.04
46007;BME280;31738;50.188;8.524;2024-01-15T04:33:15;97481.59;;;-0.07;82.87
46007;BME280;31738;50.188;8.524;2024-01-15T04:45:14;97493.38;;;-0.09;83.28
46007;BME280;31738;50.188;8.524;2024-01-15T04:53:22;97493.50;;;-0.04;82.71
46007;BME280;31738;50.188;8.524;2024-01-15T05:11:25;97484.78;;;-0.05;83.22
46007;BME280;31738;50.188;8.524;2024-01-15T05:39:19;97470.44;;;0.03;83.45
46007;BME280;31738;50.188;8.524;2024-01-15T05:43:10;97470.44;;;0.03;83.52
46007;BME280;31738;50.188;8.524;2024-01-15T06:06:40;97451.91;;;-0.02;83.76
46007;BME280;31738;50.188;8.524;2024-01-15T06:10:22;97453.16;;;-0.05;83.51
46007;BME280;31738;50.188;8.524;2024-01-15T06:14:25;97443.91;;;-0.07;83.35
46007;BME280;31738;50.188;8.524;2024-01-15T06:18:39;97450.47;;;-0.10;83.97
46007;BME280;31738;50.188;8.524;2024-01-15T06:22:34;97445.44;;;-0.11;83.83
46007;BME280;31738;50.188;8.524;2024-01-15T06:26:13;97453.34;;;-0.11;83.46
46007;BME280;31738;50.188;8.524;2024-01-15T06:28:56;97452.84;;;-0.08;83.77
46007;BME280;31738;50.188;8.524;2024-01-15T06:31:27;97450.03;;;-0.02;84.05
46007;BME280;31738;50.188;8.524;2024-01-15T06:37:33;97467.34;;;0.06;83.85
46007;BME280;31738;50.188;8.524;2024-01-15T06:40:37;97455.75;;;0.07;84.21
46007;BME280;31738;50.188;8.524;2024-01-15T06:43:05;97461.59;;;0.09;83.96
46007;BME280;31738;50.188;8.524;2024-01-15T06:45:39;97447.13;;;0.12;84.23
46007;BME280;31738;50.188;8.524;2024-01-15T06:48:10;97447.44;;;0.15;84.48
46007;BME280;31738;50.188;8.524;2024-01-15T06:51:07;97452.25;;;0.18;84.28
46007;BME280;31738;50.188;8.524;2024-01-15T06:53:33;97434.91;;;0.22;84.43
46007;BME280;31738;50.188;8.524;2024-01-15T06:56:03;97428.09;;;0.26;84.06
46007;BME280;31738;50.188;8.524;2024-01-15T06:58:32;97423.97;;;0.30;84.02
46007;BME280;31738;50.188;8.524;2024-01-15T07:01:12;97421.34;;;0.30;83.88
46007;BME280;31738;50.188;8.524;2024-01-15T07:03:41;97428.75;;;0.33;83.92
46007;BME280;31738;50.188;8.524;2024-01-15T07:06:45;97433.56;;;0.36;84.15
46007;BME280;31738;50.188;8.524;2024-01-15T07:09:52;97425.56;;;0.31;84.68
46007;BME280;31738;50.188;8.524;2024-01-15T07:13:03;97431.63;;;0.32;83.75
46007;BME280;31738;50.188;8.524;2024-01-15T07:16:05;97425.03;;;0.29;84.42
46007;BME280;31738;50.188;8.524;2024-01-15T07:18:47;97428.44;;;0.30;84.15
46007;BME280;31738;50.188;8.524;2024-01-15T07:21:20;97428.75;;;0.33;84.42
46007;BME280;31738;50.188;8.524;2024-01-15T07:24:13;97430.91;;;0.36;84.18
46007;BME280;31738;50.188;8.524;2024-01-15T07:26:58;97433.56;;;0.36;84.64
46007;BME280;31738;50.188;8.524;2024-01-15T07:29:40;97440.88;;;0.34;84.58
46007;BME280;31738;50.188;8.524;2024-01-15T07:32:33;97438.81;;;0.36;84.45
46007;BME280;31738;50.188;8.524;2024-01-15T07:35:52;97440.41;;;0.37;84.71
46007;BME280;31738;50.188;8.524;2024-01-15T07:38:02;97441.47;;;0.36;84.25
46007;BME280;31738;50.188;8.524;2024-01-15T07:40:46;97440.97;;;0.39;84.45
46007;BME280;31738;50.188;8.524;2024-01-15T07:43:52;97440.50;;;0.42;84.18
46007;BME280;31738;50.188;8.524;2024-01-15T07:46:26;97429.72;;;0.44;84.33
46007;BME280;31738;50.188;8.524;2024-01-15T07:49:42;97434.16;;;0.43;84.49
46007;BME280;31738;50.188;8.524;2024-01-15T07:52:14;97428.75;;;0.50;84.21
46007;BME280;31738;50.188;8.524;2024-01-15T07:55:06;97424.03;;;0.52;84.34
46007;BME280;31738;50.188;8.524;2024-01-15T07:57:49;97419.63;;;0.57;84.22
46007;BME280;31738;50.188;8.524;2024-01-15T08:00:40;97413.84;;;0.60;83.92
46007;BME280;31738;50.188;8.524;2024-01-15T08:03:42;97410.19;;;0.61;84.16
46007;BME280;31738;50.188;8.524;2024-01-15T08:06:35;97400.44;;;0.62;84.21
46007;BME280;31738;50.188;8.524;2024-01-15T08:09:48;97413.09;;;0.60;83.99
46007;BME280;31738;50.188;8.524;2024-01-15T08:12:33;97412.28;;;0.59;84.23
46007;BME280;31738;50.188;8.524;2024-01-15T08:18:44;97403.88;;;0.62;84.31
46007;BME280;31738;50.188;8.524;2024-01-15T08:21:48;97416.56;;;0.65;84.60
46007;BME280;31738;50.188;8.524;2024-01-15T08:24:53;97404.72;;;0.68;84.18
46007;BME280;31738;50.188;8.524;2024-01-15T08:28:12;97396.56;;;0.69;84.11
46007;BME280;31738;50.188;8.524;2024-01-15T08:31:36;97394.50;;;0.71;84.44
46007;BME280;31738;50.188;8.524;2024-01-15T08:34:24;97396.66;;;0.74;84.20
46007;BME280;31738;50.188;8.524;2024-01-15T08:40:57;97392.19;;;0.75;84.32
46007;BME280;31738;50.188;8.524;2024-01-15T08:43:43;97399.78;;;0.71;84.24
46007;BME280;31738;50.188;8.524;2024-01-15T08:46:24;97394.81;;;0.75;84.07
46007;BME280;31738;50.188;8.524;2024-01-15T08:52:49;97390.63;;;0.79;83.91
46007;BME280;31738;50.188;8.524;2024-01-15T08:55:29;97391.94;;;0.76;84.77
46007;BME280;31738;50.188;8.524;2024-01-15T08:58:12;97398.47;;;0.74;84.85
46007;BME280;31738;50.188;8.524;2024-01-15T09:01:30;97408.97;;;0.69;84.95
46007;BME280;31738;50.188;8.524;2024-01-15T09:07:54;97396.78;;;0.63;84.90
46007;BME280;31738;50.188;8.524;2024-01-15T09:10:56;97393.88;;;0.64;85.06
46007;BME280;31738;50.188;8.524;2024-01-15T09:13:54;97380.75;;;0.69;84.57
46007;BME280;31738;50.188;8.524;2024-01-15T09:16:46;97383.59;;;0.84;84.67
46007;BME280;31738;50.188;8.524;2024-01-15T09:20:02;97388.00;;;1.00;84.70
46007;BME280;31738;50.188;8.524;2024-01-15T09:23:05;97369.94;;;1.09;84.19
46007;BME280;31738;50.188;8.524;2024-01-15T09:25:59;97369.78;;;1.20;84.22
46007;BME280;31738;50.188;8.524;2024-01-15T09:29:09;97365.97;;;1.33;84.41
46007;BME280;31738;50.188;8.524;2024-01-15T09:32:14;97367.94;;;1.47;83.78
46007;BME280;31738;50.188;8.524;2024-01-15T10:14:15;97352.56;;;2.34;83.00
46007;BME280;31738;50.188;8.524;2024-01-15T10:16:44;97345.97;;;2.37;83.41
46007;BME280;31738;50.188;8.524;2024-01-15T10:19:15;97337.78;;;2.38;83.24
46007;BME280;31738;50.188;8.524;2024-01-15T10:22:25;97340.69;;;2.37;83.33
46007;BME280;31738;50.188;8.524;2024-01-15T10:25:55;97344.13;;;2.37;83.16
46007;BME280;31738;50.188;8.524;2024-01-15T10:28:51;97347.56;;;2.38;83.01
46007;BME280;31738;50.188;8.524;2024-01-15T10:31:30;97339.09;;;2.36;82.90
46007;BME280;31738;50.188;8.524;2024-01-15T10:34:30;97333.81;;;2.41;83.11
46007;BME280;31738;50.188;8.524;2024-01-15T10:37:09;97324.28;;;2.40;82.83
46007;BME280;31738;50.188;8.524;2024-01-15T10:39:57;97322.72;;;2.39;82.75
46007;BME280;31738;50.188;8.524;2024-01-15T10:42:26;97337.53;;;2.40;83.09
46007;BME280;31738;50.188;8.524;2024-01-15T10:45:12;97337.03;;;2.48;82.73
46007;BME280;31738;50.188;8.524;2024-01-15T10:47:42;97320.66;;;2.51;82.85
46007;BME280;31738;50.188;8.524;2024-01-15T10:50:19;97322.31;;;2.62;82.35
46007;BME280;31738;50.188;8.524;2024-01-15T10:52:59;97311.25;;;2.75;82.38
46007;BME280;31738;50.188;8.524;2024-01-15T10:55:38;97307.06;;;2.89;82.00
46007;BME280;31738;50.188;8.524;2024-01-15T10:58:18;97308.69;;;3.00;81.91
46007;BME280;31738;50.188;8.524;2024-01-15T11:01:31;97309.22;;;2.97;81.83
46007;BME280;31738;50.188;8.524;2024-01-15T11:04:09;97303.63;;;2.88;81.74
46007;BME280;31738;50.188;8.524;2024-01-15T11:06:49;97303.88;;;2.87;81.92
46007;BME280;31738;50.188;8.524;2024-01-15T11:09:19;97308.66;;;2.85;81.57
46007;BME280;31738;50.188;8.524;2024-01-15T11:12:10;97301.22;;;2.87;82.05
46007;BME280;31738;50.188;8.524;2024-01-15T11:15:00;97308.91;;;2.83;81.80
46007;BME280;31738;50.188;8.524;2024-01-15T11:17:59;97314.19;;;2.78;81.66
46007;BME280;31738;50.188;8.524;2024-01-15T11:20:29;97308.56;;;2.70;82.23
46007;BME280;31738;50.188;8.524;2024-01-15T11:23:00;97313.88;;;2.75;81.95
46007;BME280;31738;50.188;8.524;2024-01-15T11:25:37;97308.63;;;2.80;81.85
46007;BME280;31738;50.188;8.524;2024-01-15T11:28:12;97295.94;;;2.82;81.45
46007;BME280;31738;50.188;8.524;2024-01-15T11:30:59;97286.13;;;2.82;82.11
46007;BME280;31738;50.188;8.524;2024-01-15T11:33:41;97280.31;;;2.85;81.46
46007;BME280;31738;50.188;8.524;2024-01-15T11:42:03;97296.53;;;3.04;81.13
46007;BME280;31738;50.188;8.524;2024-01-15T11:44:54;97292.06;;;3.09;80.99
46007;BME280;31738;50.188;8.524;2024-01-15T11:50:24;97295.50;;;3.15;81.10
46007;BME280;31738;50.188;8.524;2024-01-15T11:53:00;97320.41;;;3.14;80.82
46007;BME280;31738;50.188;8.524;2024-01-15T11:55:44;97310.59;;;3.14;81.19
46007;BME280;31738;50.188;8.524;2024-01-15T11:58:16;97318.28;;;3.16;80.57
46007;BME280;31738;50.188;8.524;2024-01-15T12:00:54;97323.03;;;3.19;81.28
46007;BME280;31738;50.188;8.524;2024-01-15T12:03:32;97325.72;;;3.24;80.93
46007;BME280;31738;50.188;8.524;2024-01-15T12:06:07;97321.50;;;3.23;80.84
46007;BME280;31738;50.188;8.524;2024-01-15T12:08:34;97321.75;;;3.21;80.65
46007;BME280;31738;50.188;8.524;2024-01-15T12:11:06;97325.72;;;3.24;80.27
46007;BME280;31738;50.188;8.524;2024-01-15T12:13:49;97329.44;;;3.23;80.52
46007;BME280;31738;50.188;8.524;2024-01-15T12:16:22;97323.91;;;3.29;80.72
46007;BME280;31738;50.188;8.524;2024-01-15T12:18:55;97330.25;;;3.33;80.64
46007;BME280;31738;50.188;8.524;2024-01-15T12:21:26;97325.75;;;3.34;80.37
46007;BME280;31738;50.188;8.524;2024-01-15T12:23:52;97330.78;;;3.35;80.29
46007;BME280;31738;50.188;8.524;2024-01-15T12:26:37;97337.94;;;3.35;80.62
46007;BME280;31738;50.188;8.524;2024-01-15T12:29:13;97333.19;;;3.37;80.53
46007;BME280;31738;50.188;8.524;2024-01-15T12:32:13;97332.63;;;3.35;80.22
46007;BME280;31738;50.188;8.524;2024-01-15T12:34:43;97324.94;;;3.33;80.03
46007;BME280;31738;50.188;8.524;2024-01-15T12:37:59;97325.75;;;3.29;80.12
46007;BME280;31738;50.188;8.524;2024-01-15T12:40:39;97323.91;;;3.29;80.43
46007;BME280;31738;50.188;8.524;2024-01-15T12:43:06;97323.91;;;3.29;79.84
46007;BME280;31738;50.188;8.524;2024-01-15T12:45:34;97332.34;;;3.31;80.60
46007;BME280;31738;50.188;8.524;2024-01-15T12:48:04;97334.22;;;3.36;80.40
46007;BME280;31738;50.188;8.524;2024-01-15T12:50:49;97344.56;;;3.42;80.31
46007;BME280;31738;50.188;8.524;2024-01-15T12:53:24;97324.19;;;3.53;79.54
46007;BME280;31738;50.188;8.524;2024-01-15T12:55:53;97344.88;;;3.56;79.35
46007;BME280;31738;50.188;8.524;2024-01-15T12:58:27;97346.75;;;3.56;79.46
46007;BME280;31738;50.188;8.524;2024-01-15T13:03:55;97341.13;;;3.37;79.97
46007;BME280;31738;50.188;8.524;2024-01-15T13:06:21;97351.72;;;3.37;80.28
46007;BME280;31738;50.188;8.524;2024-01-15T13:08:55;97342.72;;;3.38;80.28
46007;BME280;31738;50.188;8.524;2024-01-15T13:11:34;97339.81;;;3.39;80.37
46007;BME280;31738;50.188;8.524;2024-01-15T13:14:05;97331.59;;;3.41;80.57
46007;BME280;31738;50.188;8.524;2024-01-15T13:16:33;97331.59;;;3.41;80.05
46007;BME280;31738;50.188;8.524;2024-01-15T13:19:06;97333.69;;;3.39;79.82
46007;BME280;31738;50.188;8.524;2024-01-15T13:22:04;97346.44;;;3.37;80.26
46007;BME280;31738;50.188;8.524;2024-01-15T13:24:35;97332.63;;;3.35;80.01
46007;BME280;31738;50.188;8.524;2024-01-15T13:27:28;97329.19;;;3.34;80.16
46007;BME280;31738;50.188;8.524;2024-01-15T13:29:56;97329.19;;;3.29;80.26
46007;BME280;31738;50.188;8.524;2024-01-15T13:32:43;97327.84;;;3.27;79.72
46007;BME280;31738;50.188;8.524;2024-01-15T13:35:09;97326.81;;;3.28;80.25
46007;BME280;31738;50.188;8.524;2024-01-15T13:38:03;97322.53;;;3.27;80.10
46007;BME280;31738;50.188;8.524;2024-01-15T13:40:33;97313.81;;;3.26;80.09
46007;BME280;31738;50.188;8.524;2024-01-15T13:43:01;97318.84;;;3.23;80.05
46007;BME280;31738;50.188;8.524;2024-01-15T13:45:27;97322.53;;;3.22;80.43
46007;BME280;31738;50.188;8.524;2024-01-15T13:47:59;97326.25;;;3.21;80.47
46007;BME280;31738;50.188;8.524;2024-01-15T13:50:31;97330.47;;;3.22;80.30
46007;BME280;31738;50.188;8.524;2024-01-15T13:52:57;97333.91;;;3.17;80.64
46007;BME280;31738;50.188;8.524;2024-01-15T13:55:23;97340.56;;;3.20;80.00
46007;BME280;31738;50.188;8.524;2024-01-15T13:57:48;97333.13;;;3.22;80.39
46007;BME280;31738;50.188;8.524;2024-01-15T14:00:14;97340.81;;;3.23;80.20
46007;BME280;31738;50.188;8.524;2024-01-15T14:02:44;97340.56;;;3.20;80.28
46007;BME280;31738;50.188;8.524;2024-01-15T14:05:09;97342.66;;;3.18;79.83
46007;BME280;31738;50.188;8.524;2024-01-15T14:07:41;97358.00;;;3.16;79.68
46007;BME280;31738;50.188;8.524;2024-01-15T14:10:09;97360.09;;;3.09;80.41
46007;BME280;31738;50.188;8.524;2024-01-15T14:12:35;97368.31;;;3.07;80.50
46007;BME280;31738;50.188;8.524;2024-01-15T14:15:02;97354.78;;;3.04;80.47
46007;BME280;31738;50.188;8.524;2024-01-15T14:17:28;97368.03;;;2.99;80.29
46007;BME280;31738;50.188;8.524;2024-01-15T14:19:54;97369.56;;;2.95;80.33
46007;BME280;31738;50.188;8.524;2024-01-15T14:22:19;97372.22;;;2.95;80.26
46007;BME280;31738;50.188;8.524;2024-01-15T14:24:45;97376.19;;;2.92;80.17
46007;BME280;31738;50.188;8.524;2024-01-15T14:27:10;97385.97;;;2.92;80.07
46007;BME280;31738;50.188;8.524;2024-01-15T14:29:36;97380.69;;;2.92;80.43
46007;BME280;31738;50.188;8.524;2024-01-15T14:32:02;97379.09;;;2.91;80.63
46007;BME280;31738;50.188;8.524;2024-01-15T14:34:27;97374.56;;;2.91;79.93
46007;BME280;31738;50.188;8.524;2024-01-15T14:36:53;97375.38;;;2.92;80.40
46007;BME280;31738;50.188;8.524;2024-01-15T14:39:45;97369.53;;;2.90;80.17
46007;BME280;31738;50.188;8.524;2024-01-15T14:42:15;97390.47;;;2.91;79.77
46007;BME280;31738;50.188;8.524;2024-01-15T14:44:44;97387.81;;;2.91;79.95
46007;BME280;31738;50.188;8.524;2024-01-15T14:51:20;97397.84;;;2.84;79.46
46007;BME280;31738;50.188;8.524;2024-01-15T14:53:55;97393.88;;;2.87;79.94
46007;BME280;31738;50.188;8.524;2024-01-15T14:57:04;97411.38;;;2.88;79.73
46007;BME280;31738;50.188;8.524;2024-01-15T14:59:42;97411.34;;;2.83;79.70
46007;BME280;31738;50.188;8.524;2024-01-15T15:02:25;97418.47;;;2.82;79.29
46007;BME280;31738;50.188;8.524;2024-01-15T15:05:03;97433.03;;;2.80;79.43
46007;BME280;31738;50.188;8.524;2024-01-15T15:07:43;97438.88;;;2.82;79.60
46007;BME280;31738;50.188;8.524;2024-01-15T15:10:19;97440.97;;;2.80;79.48
46007;BME280;31738;50.188;8.524;2024-01-15T15:13:14;97456.84;;;2.80;79.58
46007;BME280;31738;50.188;8.524;2024-01-15T15:15:56;97451.56;;;2.80;79.56
46007;BME280;31738;50.188;8.524;2024-01-15T15:18:24;97457.41;;;2.82;79.57
46007;BME280;31738;50.188;8.524;2024-01-15T15:21:05;97454.75;;;2.82;79.49
46007;BME280;31738;50.188;8.524;2024-01-15T15:23:33;97460.59;;;2.84;79.45
46007;BME280;31738;50.188;8.524;2024-01-15T15:26:02;97465.34;;;2.82;79.63
46007;BME280;31738;50.188;8.524;2024-01-15T15:28:30;97476.97;;;2.81;79.42
46007;BME280;31738;50.188;8.524;2024-01-15T15:31:03;97481.25;;;2.82;79.19
46007;BME280;31738;50.188;8.524;2024-01-15T15:34:03;97496.00;;;2.78;79.52
46007;BME280;31738;50.188;8.524;2024-01-15T15:36:54;97495.50;;;2.81;79.18
46007;BME280;31738;50.188;8.524;2024-01-15T15:39:27;97496.00;;;2.78;79.23
46007;BME280;31738;50.188;8.524;2024-01-15T15:42:31;97507.09;;;2.75;79.55
46007;BME280;31738;50.188;8.524;2024-01-15T15:45:35;97504.16;;;2.66;79.73
46007;BME280;31738;50.188;8.524;2024-01-15T15:48:14;97510.78;;;2.69;79.47
46007;BME280;31738;50.188;8.524;2024-01-15T15:51:28;97524.50;;;2.66;79.87
46007;BME280;31738;50.188;8.524;2024-01-15T15:54:36;97521.78;;;2.56;80.19
46007;BME280;31738;50.188;8.524;2024-01-15T15:57:09;97519.66;;;2.53;80.04
46007;BME280;31738;50.188;8.524;2024-01-15T15:59:48;97527.03;;;2.51;80.19
46007;BME280;31738;50.188;8.524;2024-01-15T16:02:35;97529.13;;;2.49;80.02
46007;BME280;31738;50.188;8.524;2024-01-15T16:05:07;97541.81;;;2.47;79.97
46007;BME280;31738;50.188;8.524;2024-01-15T16:11:38;97522.69;;;2.40;80.15
46007;BME280;31738;50.188;8.524;2024-01-15T16:17:38;97532.72;;;2.38;80.36
46007;BME280;31738;50.188;8.524;2024-01-15T16:20:59;97546.44;;;2.35;80.59
46007;BME280;31738;50.188;8.524;2024-01-15T16:26:51;97537.13;;;2.27;80.43
46007;BME280;31738;50.188;8.524;2024-01-15T16:29:22;97549.31;;;2.28;80.19
46007;BME280;31738;50.188;8.524;2024-01-15T16:31:57;97551.16;;;2.28;80.63
46007;BME280;31738;50.188;8.524;2024-01-15T16:34:51;97555.88;;;2.26;80.45
46007;BME280;31738;50.188;8.524;2024-01-15T16:37:28;97555.09;;;2.25;80.00
46007;BME280;31738;50.188;8.524;2024-01-15T16:39:57;97566.47;;;2.26;80.28
46007;BME280;31738;50.188;8.524;2024-01-15T16:43:41;97571.75;;;2.26;80.31
46007;BME280;31738;50.188;8.524;2024-01-15T16:45:39;97566.19;;;2.22;80.56
46007;BME280;31738;50.188;8.524;2024-01-15T16:48:13;97567.22;;;2.21;80.46
46007;BME280;31738;50.188;8.524;2024-01-15T16:51:05;97577.53;;;2.23;80.16
46007;BME280;31738;50.188;8.524;2024-01-15T16:53:43;97586.53;;;2.22;80.28
46007;BME280;31738;50.188;8.524;2024-01-15T16:56:43;97587.34;;;2.22;80.45
46007;BME280;31738;50.188;8.524;2024-01-15T16:59:33;97597.09;;;2.22;80.27
46007;BME280;31738;50.188;8.524;2024-01-15T17:02:02;97604.47;;;2.20;80.13
46007;BME280;31738;50.188;8.524;2024-01-15T17:04:36;97603.69;;;2.19;80.28
46007;BME280;31738;50.188;8.524;2024-01-15T17:07:18;97606.59;;;2.18;80.38
46007;BME280;31738;50.188;8.524;2024-01-15T17:09:57;97600.81;;;2.21;80.17
46007;BME280;31738;50.188;8.524;2024-01-15T17:12:32;97606.59;;;2.18;80.45
46007;BME280;31738;50.188;8.524;2024-01-15T17:15:00;97606.88;;;2.21;80.33
46007;BME280;31738;50.188;8.524;2024-01-15T17:17:26;97618.25;;;2.22;80.55
46007;BME280;31738;50.188;8.524;2024-01-15T17:19:58;97615.63;;;2.22;80.80
46007;BME280;31738;50.188;8.524;2024-01-15T17:22:29;97614.03;;;2.21;80.51
46007;BME280;31738;50.188;8.524;2024-01-15T17:25:09;97628.84;;;2.22;80.70
46007;BME280;31738;50.188;8.524;2024-01-15T17:27:40;97630.94;;;2.20;80.60
46007;BME280;31738;50.188;8.524;2024-01-15T17:30:15;97630.94;;;2.20;80.28
46007;BME280;31738;50.188;8.524;2024-01-15T17:32:45;97639.91;;;2.19;80.66
46007;BME280;31738;50.188;8.524;2024-01-15T17:35:11;97645.22;;;2.19;80.48
46007;BME280;31738;50.188;8.524;2024-01-15T17:37:41;97641.50;;;2.20;81.05
46007;BME280;31738;50.188;8.524;2024-01-15T17:40:15;97651.56;;;2.18;80.43
46007;BME280;31738;50.188;8.524;2024-01-15T17:42:53;97653.38;;;2.17;80.98
46007;BME280;31738;50.188;8.524;2024-01-15T17:45:32;97651.00;;;2.16;80.37
46007;BME280;31738;50.188;8.524;2024-01-15T17:47:58;97659.94;;;2.15;80.75
46007;BME280;31738;50.188;8.524;2024-01-15T17:50:27;97647.53;;;2.15;80.79
46007;BME280;31738;50.188;8.524;2024-01-15T17:53:02;97659.94;;;2.15;80.82
46007;BME280;31738;50.188;8.524;2024-01-15T17:55:31;97654.97;;;2.18;80.87
46007;BME280;31738;50.188;8.524;2024-01-15T17:58:05;97662.66;;;2.20;80.96
46007;BME280;31738;50.188;8.524;2024-01-15T18:00:40;97657.38;;;2.20;80.66
46007;BME280;31738;50.188;8.524;2024-01-15T18:03:17;97663.16;;;2.17;80.77
46007;BME280;31738;50.188;8.524;2024-01-15T18:05:54;97666.84;;;2.16;81.06
46007;BME280;31738;50.188;8.524;2024-01-15T18:08:31;97666.63;;;2.17;81.04
46007;BME280;31738;50.188;8.524;2024-01-15T18:11:05;97671.91;;;2.17;81.04
46007;BME280;31738;50.188;8.524;2024-01-15T18:13:34;97679.03;;;2.17;80.75
46007;BME280;31738;50.188;8.524;2024-01-15T18:16:00;97699.16;;;2.18;80.70
46007;BME280;31738;50.188;8.524;2024-01-15T18:18:55;97690.72;;;2.21;80.53
46007;BME280;31738;50.188;8.524;2024-01-15T18:21:26;97709.28;;;2.26;80.38
46007;BME280;31738;50.188;8.524;2024-01-15T18:24:05;97700.31;;;2.27;80.80
46007;BME280;31738;50.188;8.524;2024-01-15T18:26:34;97712.50;;;2.28;80.47
46007;BME280;31738;50.188;8.524;2024-01-15T18:31:54;97715.63;;;2.25;80.84
46007;BME280;31738;50.188;8.524;2024-01-15T18:34:26;97714.03;;;2.24;80.48
46007;BME280;31738;50.188;8.524;2024-01-15T18:37:01;97723.56;;;2.25;80.75
46007;BME280;31738;50.188;8.524;2024-01-15T18:39:30;97740.50;;;2.24;80.77
46007;BME280;31738;50.188;8.524;2024-01-15T18:42:06;97753.16;;;2.22;80.47
46007;BME280;31738;50.188;8.524;2024-01-15T18:47:59;97744.97;;;2.23;80.52
46007;BME280;31738;50.188;8.524;2024-01-15T18:50:37;97746.75;;;2.18;80.69
46007;BME280;31738;50.188;8.524;2024-01-15T18:53:07;97752.25;;;2.16;80.42
46007;BME280;31738;50.188;8.524;2024-01-15T18:56:08;97772.00;;;2.09;80.50
46007;BME280;31738;50.188;8.524;2024-01-15T18:58:42;97760.63;;;2.08;80.49
46007;BME280;31738;50.188;8.524;2024-01-15T19:01:38;97769.59;;;2.07;80.73
46007;BME280;31738;50.188;8.524;2024-01-15T19:04:57;97768.81;;;2.07;80.71
46007;BME280;31738;50.188;8.524;2024-01-15T19:07:29;97762.94;;;2.05;80.48
46007;BME280;31738;50.188;8.524;2024-01-15T19:10:42;97771.38;;;2.02;80.70
46007;BME280;31738;50.188;8.524;2024-01-15T19:13:24;97781.94;;;2.02;80.49
46007;BME280;31738;50.188;8.524;2024-01-15T19:16:08;97774.59;;;2.04;80.71
46007;BME280;31738;50.188;8.524;2024-01-15T19:18:41;97783.06;;;2.06;80.97
46007;BME280;31738;50.188;8.524;2024-01-15T19:21:11;97780.50;;;2.11;80.74
46007;BME280;31738;50.188;8.524;2024-01-15T19:23:59;97782.06;;;2.12;80.53
46007;BME280;31738;50.188;8.524;2024-01-15T19:26:31;97783.78;;;2.18;80.54
46007;BME280;31738;50.188;8.524;2024-01-15T19:29:00;97779.03;;;2.20;80.54
46007;BME280;31738;50.188;8.524;2024-01-15T19:31:37;97764.28;;;2.24;80.67
46007;BME280;31738;50.188;8.524;2024-01-15T19:34:07;97774.88;;;2.24;80.55
46007;BME280;31738;50.188;8.524;2024-01-15T19:36:58;97770.59;;;2.23;80.88
46007;BME280;31738;50.188;8.524;2024-01-15T19:39:41;97780.66;;;2.21;80.57
46007;BME280;31738;50.188;8.524;2024-01-15T19:42:20;97770.84;;;2.21;80.56
46007;BME280;31738;50.188;8.524;2024-01-15T19:44:56;97792.16;;;2.15;80.42
46007;BME280;31738;50.188;8.524;2024-01-15T19:47:29;97788.75;;;2.14;80.37
46007;BME280;31738;50.188;8.524;2024-01-15T19:50:04;97780.00;;;2.14;80.61
46007;BME280;31738;50.188;8.524;2024-01-15T19:53:04;97793.22;;;2.14;80.66
46007;BME280;31738;50.188;8.524;2024-01-15T19:55:51;97792.66;;;2.12;80.26
46007;BME280;31738;50.188;8.524;2024-01-15T19:58:20;97803.81;;;2.14;80.76
46007;BME280;31738;50.188;8.524;2024-01-15T20:01:30;97804.84;;;2.13;80.60
46007;BME280;31738;50.188;8.524;2024-01-15T20:04:08;97809.91;;;2.14;80.17
46007;BME280;31738;50.188;8.524;2024-01-15T20:06:43;97822.06;;;2.15;80.48